Weather at Bontang Airport

Public forecast

Using degrees Celsius for public forecast. Weather courtesy of forecast.io.

Closest aviation weather report (METAR) to Bontang Airport

Closest report is Sultan Aji Muhammad Sulaiman Sepinggan International Airport, 90.3 nm (167.3 km) SSW.

2024/07/23 00:00 (retrieved 26 minutes ago)

WALL 230000Z 23008KT 9000 SCT020 27/26 Q1011 NOSIG

Closest aviation forecast (TAF) to Bontang Airport

Forecast is more than 12 hours old.

Closest forecast is Sultan Aji Muhammad Sulaiman Sepinggan International Airport, 90.3 nm (167.3 km) SSW.

2024/07/22 12:00 (retrieved 12 hours ago)

TAF WALL 221100Z 2212/2318 25005KT 9000 SCT018 TEMPO 2219/2222 5000 RA FEW018CB